South Base, Georgia
Current Conditions -  °F | °C
As of 12:58 PM on Sunday 21 Dec 2014 (Local Time) from KWRB Reporting Station
Overcast Overcast  
Wind Chill: 54°   Ceiling: 1600
Heat Index: 54°   Visibility: 10mi
Dew Point: 47°   Wind: 6mph
Humidity: 77%   Direction: 60°ENE
Pressure: 30.14"   Gusts: NA
Location:  32.6187°N, 83.5735°W
Report Text: KWRB 211758Z AUTO 06005KT 10SM BKN016 OVC040 12/08 A3014 RMK AO2 SLP209 T01210082 10121 20096 58018
Loading
Personal Weather Stations






























Interactive Weather Map New forecast layout! Learn more

10-Day Weather Forecast

Advertisements
Track Severe Weather on mobile